createdAt,value
2019-02-05T00:01:02.062Z,14.23
2019-02-05T00:03:32.426Z,9.90
2019-02-05T00:06:02.390Z,12.17
2019-02-05T00:08:32.551Z,11.60
2019-02-05T00:11:02.691Z,14.20
2019-02-05T00:13:33.009Z,10.37
2019-02-05T00:16:02.900Z,11.97
2019-02-05T00:18:32.878Z,11.47
2019-02-05T00:21:03.214Z,13.83
2019-02-05T00:23:33.558Z,13.57
2019-02-05T00:26:06.262Z,11.57
2019-02-05T00:28:35.561Z,12.90
2019-02-05T00:31:05.893Z,12.57
2019-02-05T00:33:36.004Z,9.97
2019-02-05T00:36:06.431Z,10.63
2019-02-05T00:38:36.865Z,11.63
2019-02-05T00:41:06.975Z,11.07
2019-02-05T00:43:36.865Z,11.87
2019-02-05T00:46:06.830Z,12.80
2019-02-05T00:48:36.745Z,12.07
2019-02-05T00:51:07.006Z,10.27
2019-02-05T00:53:36.896Z,10.10
2019-02-05T00:56:17.347Z,9.30
2019-02-05T00:58:39.250Z,11.30
2019-02-05T01:01:09.286Z,10.03
2019-02-05T01:03:39.274Z,12.53
2019-02-05T01:06:09.667Z,9.33
2019-02-05T01:08:40.081Z,9.50
2019-02-05T01:11:10.109Z,10.53
2019-02-05T01:13:40.104Z,11.83
2019-02-05T01:16:10.937Z,11.73
2019-02-05T01:18:41.567Z,12.07
2019-02-05T01:21:11.640Z,10.47
2019-02-05T01:23:41.581Z,10.23
2019-02-05T01:26:11.758Z,10.07
2019-02-05T01:28:41.737Z,9.77
2019-02-05T01:31:11.767Z,12.27
2019-02-05T01:33:41.652Z,10.50
2019-02-05T01:36:11.999Z,11.60
2019-02-05T01:38:42.216Z,9.53
2019-02-05T01:41:12.209Z,7.87
2019-02-05T01:43:42.510Z,11.40
2019-02-05T01:46:12.872Z,9.60
2019-02-05T01:48:42.797Z,11.13
2019-02-05T01:51:12.705Z,9.13
2019-02-05T01:53:42.667Z,9.23
2019-02-05T01:56:12.599Z,10.30
2019-02-05T01:58:42.500Z,10.40
2019-02-05T02:01:13.048Z,8.70
2019-02-05T02:03:43.505Z,11.00
2019-02-05T02:06:13.506Z,8.70
2019-02-05T02:08:43.712Z,9.67
2019-02-05T02:11:14.033Z,11.87
2019-02-05T02:13:44.719Z,10.87
2019-02-05T02:16:14.891Z,9.50
2019-02-05T02:18:44.895Z,9.50
2019-02-05T02:21:14.904Z,8.97
2019-02-05T02:23:44.922Z,10.23
2019-02-05T02:26:14.848Z,10.27
2019-02-05T02:28:45.217Z,9.53
2019-02-05T02:31:15.159Z,10.33
2019-02-05T02:33:45.454Z,8.93
2019-02-05T02:36:15.903Z,8.70
2019-02-05T02:38:45.826Z,10.97
2019-02-05T02:41:15.947Z,8.17
2019-02-05T02:43:45.878Z,11.33
2019-02-05T02:46:15.865Z,8.73
2019-02-05T02:48:45.836Z,9.93
2019-02-05T02:51:15.846Z,10.20
2019-02-05T02:53:45.956Z,8.63
2019-02-05T02:56:16.464Z,9.27
2019-02-05T02:58:46.383Z,7.67
2019-02-05T03:01:16.338Z,8.33
2019-02-05T03:03:46.466Z,8.73
2019-02-05T03:06:16.454Z,8.63
2019-02-05T03:08:46.456Z,11.53
2019-02-05T03:11:16.703Z,10.17
2019-02-05T03:13:46.708Z,8.23
2019-02-05T03:16:16.698Z,8.93
2019-02-05T03:18:46.955Z,9.63
2019-02-05T03:21:16.939Z,9.20
2019-02-05T03:23:46.854Z,8.93
2019-02-05T03:26:16.832Z,9.77
2019-02-05T03:28:47.103Z,11.17
2019-02-05T03:31:17.340Z,8.87
2019-02-05T03:33:47.488Z,8.60
2019-02-05T03:36:17.476Z,8.00
2019-02-05T03:38:47.619Z,8.47
2019-02-05T03:41:17.756Z,9.13
2019-02-05T03:43:47.963Z,10.63
2019-02-05T03:46:18.941Z,8.30
2019-02-05T03:48:50.667Z,8.73
2019-02-05T03:51:50.673Z,9.07
2019-02-05T03:54:40.991Z,10.13
2019-02-05T03:57:38.119Z,9.27
2019-02-05T04:00:42.129Z,10.70
2019-02-05T04:04:13.693Z,10.63
2019-02-05T04:07:47.281Z,7.60
2019-02-05T04:11:04.908Z,11.43
2019-02-05T04:14:28.179Z,8.40
2019-02-05T04:17:40.225Z,8.83
2019-02-05T04:21:03.985Z,9.77
2019-02-05T04:24:32.456Z,11.73
2019-02-05T04:27:28.715Z,10.17
2019-02-05T04:31:07.924Z,9.40
2019-02-05T04:34:38.437Z,10.40
2019-02-05T04:37:32.187Z,9.80
2019-02-05T04:40:55.392Z,10.23
2019-02-05T04:44:01.724Z,10.00
2019-02-05T04:47:16.389Z,11.60
2019-02-05T04:50:15.709Z,10.10
2019-02-05T04:53:12.299Z,13.37
2019-02-05T04:56:02.734Z,12.77
2019-02-05T04:59:08.197Z,9.90
2019-02-05T05:02:29.935Z,11.23
2019-02-05T05:05:37.572Z,13.23
2019-02-05T05:09:02.045Z,17.53
2019-02-05T05:11:31.955Z,12.77
2019-02-05T05:14:02.008Z,12.40
2019-02-05T05:16:32.155Z,13.13
2019-02-05T05:19:02.683Z,13.03
2019-02-05T05:21:33.619Z,11.33
2019-02-05T05:24:04.902Z,12.77
2019-02-05T05:26:35.208Z,12.00
2019-02-05T05:29:05.804Z,9.63
2019-02-05T05:31:35.908Z,9.90
2019-02-05T05:34:06.906Z,11.37
2019-02-05T05:36:36.869Z,10.53
2019-02-05T05:39:09.588Z,11.43
2019-02-05T05:41:39.680Z,11.13
2019-02-05T05:44:09.821Z,9.73
2019-02-05T05:46:39.841Z,11.23
2019-02-05T05:49:10.031Z,9.53
2019-02-05T05:51:40.189Z,11.80
2019-02-05T05:54:10.340Z,9.10
2019-02-05T05:56:40.456Z,10.77
2019-02-05T05:59:10.354Z,11.13
2019-02-05T06:01:40.241Z,9.77
2019-02-05T06:04:10.278Z,9.63
2019-02-05T06:06:40.699Z,10.40
2019-02-05T06:09:10.749Z,11.77
2019-02-05T06:11:40.639Z,10.73
2019-02-05T06:14:10.603Z,10.70
2019-02-05T06:16:40.505Z,10.67
2019-02-05T06:19:10.722Z,11.13
2019-02-05T06:21:40.837Z,11.13
2019-02-05T06:24:10.754Z,9.73
2019-02-05T06:26:40.806Z,10.63
2019-02-05T06:29:10.754Z,12.63
2019-02-05T06:31:40.751Z,11.97
2019-02-05T06:34:10.657Z,11.43
2019-02-05T06:36:40.668Z,10.03
2019-02-05T06:39:11.027Z,11.47
2019-02-05T06:41:41.299Z,11.77
2019-02-05T06:44:11.255Z,9.57
2019-02-05T06:46:41.460Z,11.10
2019-02-05T06:49:12.245Z,11.00
2019-02-05T06:51:42.641Z,11.03
2019-02-05T06:54:12.566Z,12.27
2019-02-05T06:56:42.616Z,14.13
2019-02-05T06:59:12.813Z,11.57
2019-02-05T07:01:42.711Z,11.27
2019-02-05T07:04:12.704Z,11.40
2019-02-05T07:06:43.050Z,12.33
2019-02-05T07:09:13.251Z,10.63
2019-02-05T07:11:43.189Z,12.17
2019-02-05T07:14:13.231Z,13.50
2019-02-05T07:16:43.945Z,11.90
2019-02-05T07:19:13.850Z,12.63
2019-02-05T07:21:44.116Z,12.17
2019-02-05T07:24:14.187Z,11.60
2019-02-05T07:26:44.287Z,11.20
2019-02-05T07:29:14.292Z,12.67
2019-02-05T07:31:44.358Z,14.03
2019-02-05T07:34:14.575Z,14.97
2019-02-05T07:36:44.731Z,13.53
2019-02-05T07:39:14.657Z,15.40
2019-02-05T07:41:44.714Z,12.17
2019-02-05T07:44:14.598Z,12.10
2019-02-05T07:46:44.802Z,13.43
2019-02-05T07:49:14.753Z,13.90
2019-02-05T07:51:44.934Z,13.07
2019-02-05T07:54:15.242Z,12.47
2019-02-05T07:56:45.171Z,13.57
2019-02-05T07:59:15.048Z,13.57
2019-02-05T08:01:45.300Z,15.77
2019-02-05T08:04:15.162Z,13.17
2019-02-05T08:06:45.278Z,15.17
2019-02-05T08:09:15.261Z,14.73
2019-02-05T08:11:45.604Z,15.17
2019-02-05T08:14:15.666Z,15.13
2019-02-05T08:16:47.863Z,15.37
2019-02-05T08:19:17.568Z,14.83
2019-02-05T08:21:47.530Z,14.27
2019-02-05T08:24:17.420Z,14.00
2019-02-05T08:26:47.519Z,14.70
2019-02-05T08:29:21.681Z,15.03
2019-02-05T08:31:49.283Z,13.33
2019-02-05T08:34:19.257Z,15.57
2019-02-05T08:36:49.208Z,16.43
2019-02-05T08:39:19.405Z,16.57
2019-02-05T08:41:52.442Z,15.00
2019-02-05T08:44:22.455Z,15.07
2019-02-05T08:46:52.530Z,16.70
2019-02-05T08:49:22.885Z,17.70
2019-02-05T08:51:52.802Z,13.83
2019-02-05T08:54:22.671Z,19.97
2019-02-05T08:56:52.687Z,14.30
2019-02-05T08:59:22.890Z,16.37
2019-02-05T09:01:53.362Z,13.43
2019-02-05T09:04:23.782Z,13.20
2019-02-05T09:06:54.262Z,15.40
2019-02-05T09:09:24.499Z,14.20
2019-02-05T09:11:54.518Z,16.10
2019-02-05T09:14:24.865Z,14.20
2019-02-05T09:16:54.990Z,15.23
2019-02-05T09:19:25.212Z,14.60
2019-02-05T09:21:55.276Z,19.00
2019-02-05T09:24:25.622Z,13.77
2019-02-05T09:26:55.813Z,14.60
2019-02-05T09:29:33.240Z,13.70
2019-02-05T09:31:58.845Z,14.93
2019-02-05T09:34:28.981Z,13.47
2019-02-05T09:36:59.497Z,15.27
2019-02-05T09:39:29.639Z,18.37
2019-02-05T09:42:01.153Z,13.87
2019-02-05T09:44:31.957Z,15.30
2019-02-05T09:47:02.213Z,14.33
2019-02-05T09:49:32.301Z,14.93
2019-02-05T09:52:02.492Z,16.50
2019-02-05T09:54:33.007Z,17.00
2019-02-05T09:57:03.593Z,13.90
2019-02-05T09:59:44.943Z,14.70
2019-02-05T10:02:06.322Z,15.90
2019-02-05T10:04:36.200Z,18.37
2019-02-05T10:07:06.527Z,16.30
2019-02-05T10:09:36.781Z,14.90
2019-02-05T10:12:08.304Z,15.93
2019-02-05T10:14:38.268Z,16.07
2019-02-05T10:17:08.324Z,17.13
2019-02-05T10:19:38.275Z,16.87
2019-02-05T10:22:08.312Z,18.27
2019-02-05T10:24:38.225Z,18.57
2019-02-05T10:27:08.236Z,15.87
2019-02-05T10:29:38.639Z,15.10
2019-02-05T10:32:08.870Z,17.13
2019-02-05T10:34:39.119Z,15.60
2019-02-05T10:37:09.437Z,15.47
2019-02-05T10:39:39.476Z,15.43
2019-02-05T10:42:09.629Z,14.97
2019-02-05T10:44:40.103Z,15.60
2019-02-05T10:47:10.629Z,16.73
2019-02-05T10:49:40.608Z,17.83
2019-02-05T10:52:10.667Z,15.93
2019-02-05T10:54:41.068Z,14.63
2019-02-05T10:57:28.147Z,16.27
2019-02-05T11:00:08.494Z,17.03
2019-02-05T11:02:29.974Z,15.60
2019-02-05T11:04:59.863Z,17.70
2019-02-05T11:07:29.822Z,15.93
2019-02-05T11:09:59.817Z,16.33
2019-02-05T11:12:29.960Z,15.97
2019-02-05T11:14:59.928Z,17.70
2019-02-05T11:17:30.216Z,18.33
2019-02-05T11:20:00.203Z,20.40
2019-02-05T11:22:30.625Z,16.43
2019-02-05T11:25:00.664Z,18.30
2019-02-05T11:27:31.705Z,18.13
2019-02-05T11:30:01.646Z,15.77
2019-02-05T11:32:31.717Z,18.63
2019-02-05T11:35:01.693Z,16.73
2019-02-05T11:37:31.687Z,16.50
2019-02-05T11:40:01.722Z,15.33
2019-02-05T11:42:31.984Z,15.63
2019-02-05T11:45:01.900Z,15.40
2019-02-05T11:47:32.023Z,15.67
2019-02-05T11:50:02.290Z,15.77
2019-02-05T11:52:32.296Z,14.47
2019-02-05T11:55:02.467Z,16.10
2019-02-05T11:57:32.967Z,15.53
2019-02-05T12:00:02.852Z,17.77
2019-02-05T12:02:32.958Z,17.10
2019-02-05T12:05:02.957Z,18.67
2019-02-05T12:07:32.889Z,16.40
2019-02-05T12:10:02.892Z,15.70
2019-02-05T12:12:33.229Z,16.13
2019-02-05T12:15:03.137Z,15.63
2019-02-05T12:17:33.073Z,18.47
2019-02-05T12:20:03.067Z,15.97
2019-02-05T12:22:33.043Z,15.33
2019-02-05T12:25:04.468Z,15.77
2019-02-05T12:27:34.629Z,19.43
2019-02-05T12:30:10.232Z,18.20
2019-02-05T12:32:40.349Z,18.13
2019-02-05T12:35:10.674Z,16.87
2019-02-05T12:37:40.926Z,17.37
2019-02-05T12:40:12.642Z,17.53
2019-02-05T12:42:43.072Z,18.13
2019-02-05T12:45:17.422Z,18.27
2019-02-05T12:47:47.498Z,18.60
2019-02-05T12:50:20.908Z,17.87
2019-02-05T12:52:51.281Z,17.27
2019-02-05T12:55:21.724Z,19.63
2019-02-05T12:57:51.811Z,16.43
2019-02-05T13:00:43.648Z,16.87
2019-02-05T13:03:14.123Z,20.30
2019-02-05T13:05:45.372Z,16.00
2019-02-05T13:08:15.543Z,18.17
2019-02-05T13:10:48.924Z,18.57
2019-02-05T13:13:19.392Z,19.50
2019-02-05T13:15:49.590Z,22.13
2019-02-05T13:18:19.557Z,17.37
2019-02-05T13:20:49.806Z,17.90
2019-02-05T13:23:20.052Z,18.90
2019-02-05T13:25:49.994Z,19.60
2019-02-05T13:28:19.988Z,17.53
2019-02-05T13:30:50.129Z,19.23
2019-02-05T13:33:20.246Z,17.90
2019-02-05T13:35:50.488Z,18.60
2019-02-05T13:38:20.450Z,18.37
2019-02-05T13:40:50.427Z,21.23
2019-02-05T13:43:20.374Z,20.73
2019-02-05T13:45:50.650Z,19.40
2019-02-05T13:48:20.683Z,16.93
2019-02-05T13:50:50.742Z,19.83
2019-02-05T13:53:20.866Z,19.83
2019-02-05T13:55:50.923Z,18.30
2019-02-05T13:58:21.241Z,19.87
2019-02-05T14:00:54.588Z,18.10
2019-02-05T14:03:24.846Z,18.77
2019-02-05T14:05:54.738Z,21.83
2019-02-05T14:08:24.921Z,21.17
2019-02-05T14:10:55.144Z,18.17
2019-02-05T14:13:25.033Z,18.57
2019-02-05T14:15:55.349Z,18.90
2019-02-05T14:18:25.835Z,22.27
2019-02-05T14:20:55.731Z,23.13
2019-02-05T14:23:25.756Z,18.80
2019-02-05T14:25:56.273Z,20.93
2019-02-05T14:28:27.581Z,16.73
2019-02-05T14:31:04.743Z,18.99
2019-02-05T14:33:35.278Z,19.10
2019-02-05T14:36:05.769Z,18.10
2019-02-05T14:38:35.756Z,18.77
2019-02-05T14:41:07.288Z,19.80
2019-02-05T14:43:37.558Z,19.20
2019-02-05T14:46:07.879Z,19.10
2019-02-05T14:48:38.111Z,18.03
2019-02-05T14:51:08.106Z,20.67
2019-02-05T14:53:38.062Z,19.00
2019-02-05T14:56:08.056Z,17.67
2019-02-05T14:58:38.053Z,18.33
2019-02-05T15:01:08.425Z,20.00
2019-02-05T15:03:38.502Z,19.33
2019-02-05T15:06:08.615Z,20.53
2019-02-05T15:08:38.902Z,20.40
2019-02-05T15:11:08.881Z,17.00
2019-02-05T15:13:38.881Z,20.67
2019-02-05T15:16:08.829Z,21.13
2019-02-05T15:18:38.757Z,17.93
2019-02-05T15:21:08.985Z,21.80
2019-02-05T15:23:39.363Z,18.97
2019-02-05T15:26:09.349Z,17.47
2019-02-05T15:28:39.290Z,23.37
2019-02-05T15:31:09.307Z,19.93
2019-02-05T15:33:47.040Z,18.67
2019-02-05T15:36:34.135Z,21.03
2019-02-05T15:39:05.670Z,21.13
2019-02-05T15:41:35.670Z,20.03
2019-02-05T15:44:05.800Z,22.97
2019-02-05T15:46:36.139Z,21.97
2019-02-05T15:49:06.684Z,19.70
2019-02-05T15:51:36.692Z,21.20
2019-02-05T15:54:07.049Z,21.67
2019-02-05T15:56:37.353Z,19.87
2019-02-05T15:59:07.607Z,17.57
2019-02-05T16:01:37.871Z,18.43
2019-02-05T16:04:08.141Z,20.17
2019-02-05T16:06:38.058Z,20.73
2019-02-05T16:09:10.431Z,18.60
2019-02-05T16:11:40.367Z,21.63
2019-02-05T16:14:10.846Z,21.47
2019-02-05T16:16:40.778Z,21.67
2019-02-05T16:19:10.727Z,21.23
2019-02-05T16:21:41.149Z,19.80
2019-02-05T16:24:11.396Z,19.93
2019-02-05T16:26:41.360Z,25.37
2019-02-05T16:29:11.311Z,19.13
2019-02-05T16:31:41.206Z,18.93
2019-02-05T16:34:11.431Z,20.00
2019-02-05T16:36:41.354Z,20.50
2019-02-05T16:39:12.264Z,20.33
2019-02-05T16:41:42.180Z,20.67
2019-02-05T16:44:12.237Z,21.30
2019-02-05T16:46:42.188Z,21.87
2019-02-05T16:49:12.114Z,19.30
2019-02-05T16:51:42.109Z,20.37
2019-02-05T16:54:12.079Z,18.67
2019-02-05T16:56:42.213Z,19.93
2019-02-05T16:59:12.167Z,21.40
2019-02-05T17:01:42.231Z,24.20
2019-02-05T17:04:12.195Z,20.67
2019-02-05T17:06:42.142Z,25.87
2019-02-05T17:09:18.437Z,22.73
2019-02-05T17:11:48.850Z,20.40
2019-02-05T17:14:18.859Z,21.40
2019-02-05T17:16:48.796Z,22.20
2019-02-05T17:19:18.721Z,21.87
2019-02-05T17:21:48.784Z,19.03
2019-02-05T17:24:19.535Z,19.73
2019-02-05T17:26:49.911Z,20.80
2019-02-05T17:29:19.839Z,22.53
2019-02-05T17:31:49.851Z,20.43
2019-02-05T17:34:19.851Z,18.50
2019-02-05T17:36:50.157Z,20.27
2019-02-05T17:39:20.203Z,18.23
2019-02-05T17:41:50.305Z,19.63
2019-02-05T17:44:20.717Z,21.37
2019-02-05T17:46:50.826Z,22.93
2019-02-05T17:49:20.875Z,21.83
2019-02-05T17:51:51.138Z,21.17
2019-02-05T17:54:21.313Z,21.30
2019-02-05T17:56:51.575Z,21.83
2019-02-05T17:59:21.526Z,20.30
2019-02-05T18:01:51.523Z,18.80
2019-02-05T18:04:21.568Z,19.57
2019-02-05T18:06:51.794Z,20.83
2019-02-05T18:09:22.025Z,19.07
2019-02-05T18:11:52.051Z,18.83
2019-02-05T18:14:22.010Z,18.83
2019-02-05T18:16:52.266Z,22.30
2019-02-05T18:19:22.567Z,22.57
2019-02-05T18:21:52.682Z,25.37
2019-02-05T18:24:22.668Z,19.43
2019-02-05T18:26:52.598Z,24.10
2019-02-05T18:29:22.554Z,20.43
2019-02-05T18:31:52.981Z,22.37
2019-02-05T18:34:23.290Z,21.53
2019-02-05T18:36:53.327Z,24.30
2019-02-05T18:39:23.306Z,21.27
2019-02-05T18:41:53.266Z,20.87
2019-02-05T18:44:26.726Z,18.83
2019-02-05T18:46:56.833Z,17.47
2019-02-05T18:49:26.801Z,18.27
2019-02-05T18:51:56.873Z,20.30
2019-02-05T18:54:26.871Z,20.63
2019-02-05T18:56:58.685Z,20.97
2019-02-05T18:59:29.349Z,18.80
2019-02-05T19:02:01.004Z,17.10
2019-02-05T19:04:31.012Z,20.40
2019-02-05T19:07:03.747Z,16.40
2019-02-05T19:09:34.500Z,18.93
2019-02-05T19:12:05.135Z,19.80
2019-02-05T19:14:35.584Z,19.77
2019-02-05T19:17:05.858Z,18.73
2019-02-05T19:19:35.895Z,19.90
2019-02-05T19:22:06.671Z,22.00
2019-02-05T19:25:07.472Z,20.47
2019-02-05T19:27:38.078Z,20.03
2019-02-05T19:30:11.144Z,18.73
2019-02-05T19:32:41.899Z,18.27
2019-02-05T19:35:12.748Z,22.33
2019-02-05T19:37:42.853Z,22.43
2019-02-05T19:40:13.135Z,21.47
2019-02-05T19:42:43.443Z,18.67
2019-02-05T19:45:33.493Z,21.40
2019-02-05T19:48:04.430Z,21.00
2019-02-05T19:50:34.425Z,21.33
2019-02-05T19:53:04.499Z,22.63
2019-02-05T19:55:34.379Z,20.23
2019-02-05T19:58:05.896Z,20.83
2019-02-05T20:00:35.852Z,20.33
2019-02-05T20:03:06.978Z,21.73
2019-02-05T20:05:37.373Z,20.70
2019-02-05T20:08:07.457Z,19.93
2019-02-05T20:10:37.610Z,19.97
2019-02-05T20:13:10.847Z,24.00
2019-02-05T20:15:39.882Z,22.90
2019-02-05T20:18:10.080Z,21.13
2019-02-05T20:20:40.009Z,18.83
2019-02-05T20:23:09.952Z,20.67
2019-02-05T20:25:39.843Z,21.83
2019-02-05T20:28:09.739Z,22.97
2019-02-05T20:30:39.646Z,20.20
2019-02-05T20:33:09.864Z,19.10
2019-02-05T20:35:39.748Z,22.07
2019-02-05T20:38:09.762Z,22.37
2019-02-05T20:40:39.740Z,20.93
2019-02-05T20:43:09.739Z,18.63
2019-02-05T20:45:39.700Z,21.20
2019-02-05T20:48:09.954Z,17.73
2019-02-05T20:50:40.245Z,19.80
2019-02-05T20:53:13.989Z,22.37
2019-02-05T20:55:41.828Z,21.30
2019-02-05T20:58:11.829Z,23.53
2019-02-05T21:00:41.743Z,22.93
2019-02-05T21:03:11.984Z,24.97
2019-02-05T21:05:42.161Z,21.07
2019-02-05T21:08:12.069Z,23.50
2019-02-05T21:10:42.285Z,20.30
2019-02-05T21:13:12.173Z,21.20
2019-02-05T21:15:42.446Z,22.53
2019-02-05T21:18:12.327Z,21.93
2019-02-05T21:20:42.601Z,20.60
2019-02-05T21:23:12.624Z,22.47
2019-02-05T21:25:42.557Z,20.00
2019-02-05T21:28:12.648Z,19.23
2019-02-05T21:30:42.562Z,22.30
2019-02-05T21:33:12.779Z,21.83
2019-02-05T21:35:43.135Z,22.40
2019-02-05T21:38:13.387Z,24.20
2019-02-05T21:40:43.434Z,25.50
2019-02-05T21:43:16.390Z,22.53
2019-02-05T21:45:46.417Z,25.07
2019-02-05T21:48:16.365Z,22.77
2019-02-05T21:50:46.281Z,23.13
2019-02-05T21:53:16.239Z,23.57
2019-02-05T21:55:46.253Z,23.57
2019-02-05T21:58:16.254Z,24.60
2019-02-05T22:00:46.310Z,24.87
2019-02-05T22:03:16.504Z,23.23
2019-02-05T22:05:47.056Z,26.73
2019-02-05T22:08:17.138Z,24.93
2019-02-05T22:10:47.068Z,23.00
2019-02-05T22:13:17.160Z,23.20
2019-02-05T22:15:47.090Z,26.87
2019-02-05T22:18:17.006Z,24.53
2019-02-05T22:20:46.993Z,22.37
2019-02-05T22:23:17.199Z,24.30
2019-02-05T22:25:47.431Z,25.57
2019-02-05T22:28:20.462Z,26.43
2019-02-05T22:30:48.993Z,30.83
2019-02-05T22:33:18.901Z,24.83
2019-02-05T22:35:49.129Z,24.00
2019-02-05T22:38:19.120Z,23.97
2019-02-05T22:40:49.298Z,25.23
2019-02-05T22:43:19.511Z,22.63
2019-02-05T22:45:49.459Z,23.57
2019-02-05T22:48:19.651Z,25.03
2019-02-05T22:50:49.611Z,21.53
2019-02-05T22:53:19.748Z,27.57
2019-02-05T22:55:49.941Z,24.23
2019-02-05T22:58:19.827Z,26.53
2019-02-05T23:01:34.881Z,28.00
2019-02-05T23:04:50.849Z,25.50
2019-02-05T23:07:22.421Z,25.47
2019-02-05T23:10:13.488Z,23.07
2019-02-05T23:13:09.284Z,25.03
2019-02-05T23:15:43.394Z,26.63
2019-02-05T23:18:13.983Z,24.00
2019-02-05T23:20:45.728Z,27.67
2019-02-05T23:23:20.316Z,25.73
2019-02-05T23:25:50.277Z,24.70
2019-02-05T23:28:20.572Z,23.60
2019-02-05T23:30:51.078Z,23.83
2019-02-05T23:33:21.013Z,26.93
2019-02-05T23:35:50.937Z,24.70
2019-02-05T23:38:20.871Z,25.03
2019-02-05T23:40:50.847Z,22.13
2019-02-05T23:43:21.829Z,23.93
2019-02-05T23:46:01.515Z,23.43
2019-02-05T23:48:23.893Z,24.13
2019-02-05T23:50:53.943Z,26.13
2019-02-05T23:53:23.886Z,25.20
2019-02-05T23:55:53.819Z,23.90
2019-02-05T23:58:23.756Z,26.93
